Latest Weather Observations for Noonamah

IDD60901

Issued at 11:51 pm CST Wednesday 13 November 2019 (issued every 10 minutes, with the page automatically refreshed every 10 minutes)

About weather observations | Map of Darwin area stations | Latest observations for Darwin area | Other Formats
Station Details ID: 014314 Name: NOONAMAH AIRSTRIP Lat: -12.61 Lon: 131.05 Height: 17.5 m
Data from the previous 72 hours. | See also: Recent months at Noonamah
Date/Time
CST
Temp
°C
App
Temp
°C
Dew
Point
°C
Rel
Hum
%
Delta-T
°C
Wind Press
QNH
hPa
Press
MSL
hPa
Rain since
9am
mm
Dir  Spd
km/h
Gust
km/h
Spd
kts
Gust
kts
13/11:30pm 25.5 31.0 23.4 88 1.4 CALM 0 0 0 0 1011.3 1011.1 10.8
13/11:00pm 25.8 31.2 23.8 89 1.4 ESE 2 4 1 2 1011.1 1010.9 10.8
13/10:30pm 25.6 31.3 23.7 89 1.3 CALM 0 0 0 0 1010.8 1010.6 10.8
13/10:00pm 25.7 31.6 24.1 91 1.1 CALM 0 0 0 0 1010.3 1010.1 10.8
13/09:30pm 25.3 30.1 23.5 90 1.2 NNE 4 6 2 3 1009.9 1009.7 10.8
13/09:00pm 25.7 30.7 23.9 90 1.2 NNW 4 4 2 2 1009.3 1009.1 10.8
13/08:30pm 25.6 30.2 23.1 86 1.7 NW 4 6 2 3 1009.1 1008.9 10.8
13/08:00pm 25.5 29.5 22.8 85 1.8 SW 6 11 3 6 1009.1 1008.9 10.8
13/07:30pm 25.1 29.0 22.6 86 1.7 S 6 11 3 6 1008.8 1008.6 10.8
13/07:00pm 25.4 30.0 22.5 84 2.0 SW 2 7 1 4 1008.8 1008.6 10.8
13/06:30pm 23.8 25.7 22.1 90 1.1 N 15 24 8 13 1008.3 1008.1 10.8
13/06:00pm 23.3 23.2 21.4 89 1.3 SW 24 43 13 23 1009.4 1009.2 10.0
13/05:30pm 26.4 26.9 20.9 72 3.6 SSW 19 46 10 25 1009.7 1009.5 3.4
13/05:00pm 30.1 34.9 24.5 72 3.9 N 7 15 4 8 1007.8 1007.6 2.0
13/04:30pm 34.6 36.3 23.0 51 8.0 NW 19 33 10 18 1007.0 1006.8 0.0
13/04:00pm 35.2 36.8 23.2 49 8.3 NW 20 28 11 15 1007.5 1007.3 0.0
13/03:30pm 36.5 39.3 23.0 45 9.4 WNW 13 22 7 12 1007.5 1007.3 0.0
13/03:00pm 35.9 38.2 22.8 46 9.1 WNW 15 22 8 12 1008.0 1007.8 0.0
13/02:30pm 36.8 38.7 21.4 41 10.5 WNW 13 17 7 9 1008.4 1008.2 0.0
13/02:00pm 36.2 39.0 20.4 39 10.6 S 6 11 3 6 1008.8 1008.6 0.0
13/01:30pm 36.2 39.2 20.8 40 10.4 ENE 6 13 3 7 1009.4 1009.2 0.0
13/01:00pm 36.2 39.8 21.2 41 10.2 SSW 4 11 2 6 1010.1 1009.9 0.0
13/12:30pm 35.1 38.2 21.0 43 9.5 NW 6 15 3 8 1010.5 1010.3 0.0
13/12:00pm 34.2 37.2 21.3 47 8.7 WNW 7 15 4 8 1011.1 1010.9 0.0
13/11:30am 34.2 37.5 21.9 48 8.4 WSW 7 17 4 9 1011.6 1011.4 0.0
13/11:00am 33.3 36.5 20.5 47 8.6 W 4 7 2 4 1012.1 1011.9 0.0
13/10:30am 32.5 36.2 21.4 52 7.5 W 4 9 2 5 1012.5 1012.3 0.0
13/10:00am 31.9 35.8 22.6 58 6.4 S 6 11 3 6 1012.7 1012.5 0.0
13/09:30am 31.7 35.9 23.2 60 5.9 W 6 9 3 5 1013.0 1012.8 0.0
13/09:00am 30.3 34.9 23.2 65 4.9 NNW 4 7 2 4 1012.9 1012.7 0.0
13/08:30am 29.9 34.8 23.6 69 4.3 NW 4 9 2 5 1012.8 1012.6 0.0
13/08:00am 28.8 34.5 23.7 74 3.5 CALM 0 0 0 0 1012.8 1012.6 0.0
13/07:30am 28.1 34.0 24.1 79 2.8 CALM 0 0 0 0 1012.7 1012.5 0.0
13/07:00am 26.6 32.7 24.4 88 1.5 CALM 0 0 0 0 1012.3 1012.1 0.0
13/06:30am 25.4 31.0 23.6 90 1.2 CALM 0 0 0 0 1012.1 1011.9 0.0
13/06:00am 25.1 30.5 23.3 90 1.2 CALM 0 4 0 2 1011.9 1011.7 0.0
13/05:30am 25.3 30.8 23.4 89 1.3 CALM 0 0 0 0 1011.7 1011.5 0.0
13/05:00am 25.5 31.0 23.4 88 1.4 CALM 0 0 0 0 1011.4 1011.2 0.0
13/04:30am 25.9 31.5 23.6 87 1.6 CALM 0 0 0 0 1011.3 1011.1 0.0
13/04:00am 25.8 31.2 23.3 86 1.7 CALM 0 0 0 0 1011.0 1010.8 0.0
13/03:30am 26.3 31.8 23.4 84 2.0 CALM 0 0 0 0 1010.9 1010.7 0.0
13/03:00am 26.5 31.1 23.2 82 2.2 NNE 4 6 2 3 1010.6 1010.4 0.0
13/02:30am 26.7 31.4 23.4 82 2.3 NNE 4 6 2 3 1010.8 1010.6 0.0
13/02:00am 26.9 31.5 23.2 80 2.5 NNE 4 7 2 4 1011.0 1010.8 0.0
13/01:30am 27.0 31.1 23.0 79 2.7 NNE 6 7 3 4 1011.2 1011.0 0.0
13/01:00am 27.0 31.4 22.8 78 2.8 NNE 4 6 2 3 1011.6 1011.4 0.0
13/12:30am 27.2 31.4 22.4 75 3.2 NNE 4 7 2 4 1012.0 1011.8 0.0
13/12:00am 27.4 32.0 21.7 71 3.8 CALM 0 4 0 2 1012.1 1011.9 0.0
 
Date/Time
CST
Temp
°C
App
Temp
°C
Dew
Point
°C
Rel
Hum
%
Delta-T
°C
Wind Press
QNH
hPa
Press
MSL
hPa
Rain since
9am
mm
Dir  Spd
km/h
Gust
km/h
Spd
kts
Gust
kts
12/11:30pm 27.7 32.4 22.0 71 3.8 CALM 0 0 0 0 1012.0 1011.8 0.0
12/11:00pm 28.0 31.7 21.5 67 4.3 N 4 6 2 3 1011.9 1011.7 0.0
12/10:30pm 28.6 32.4 21.6 66 4.7 NNW 4 6 2 3 1011.6 1011.4 0.0
12/10:00pm 28.8 32.4 21.3 64 5.0 WNW 4 7 2 4 1011.5 1011.3 0.0
12/09:30pm 28.7 32.0 20.7 62 5.3 NW 4 6 2 3 1011.3 1011.1 0.0
12/09:00pm 29.1 32.2 20.3 59 5.8 NNW 4 6 2 3 1011.1 1010.9 0.0
12/08:30pm 29.7 32.8 20.3 57 6.2 WNW 4 6 2 3 1010.8 1010.6 0.0
12/08:00pm 30.2 32.9 20.2 55 6.6 NW 6 9 3 5 1010.4 1010.2 0.0
12/07:30pm 30.6 33.3 20.2 53 6.9 NW 6 11 3 6 1009.9 1009.7 0.0
12/07:00pm 31.3 33.5 19.3 49 7.8 NW 6 9 3 5 1009.5 1009.3 0.0
12/06:30pm 32.4 33.9 18.9 44 8.8 WNW 9 17 5 9 1009.3 1009.1 0.0
12/06:00pm 33.8 35.4 19.1 42 9.7 NW 9 15 5 8 1008.8 1008.6 0.0
12/05:30pm 34.4 35.9 18.8 39 10.2 NW 9 17 5 9 1008.3 1008.1 0.0
12/05:00pm 35.1 35.9 19.1 39 10.6 WNW 13 22 7 12 1008.2 1008.0 0.0
12/04:30pm 35.5 36.1 18.6 37 11.1 WNW 13 22 7 12 1008.0 1007.8 0.0
12/04:00pm 35.7 36.7 18.7 36 11.2 NW 11 17 6 9 1008.2 1008.0 0.0
12/03:30pm 35.6 35.1 17.8 35 11.6 NW 17 24 9 13 1008.2 1008.0 0.0
12/03:00pm 37.4 38.2 17.4 30 13.0 WNW 9 20 5 11 1008.4 1008.2 0.0
12/02:30pm 37.7 39.4 17.1 29 13.3 ESE 4 7 2 4 1008.7 1008.5 0.0
12/02:00pm 36.9 37.7 15.9 28 13.3 WNW 6 13 3 7 1009.1 1008.9 0.0
12/01:30pm 36.5 37.2 15.6 29 13.2 SW 6 11 3 6 1009.7 1009.5 0.0
12/01:00pm 36.5 37.6 15.6 29 13.2 SW 4 15 2 8 1010.1 1009.9 0.0
12/12:30pm 35.6 37.2 16.8 32 12.0 S 4 9 2 5 1010.6 1010.4 0.0
12/12:00pm 35.3 36.4 16.6 33 11.9 SSW 6 9 3 5 1011.1 1010.9 0.0
12/11:30am 34.5 35.3 15.9 33 11.7 SE 6 11 3 6 1011.6 1011.4 0.0
12/11:00am 34.1 35.3 16.9 36 11.0 S 6 17 3 9 1012.1 1011.9 0.0
12/10:30am 33.4 34.8 16.3 36 10.8 NE 4 11 2 6 1012.4 1012.2 0.0
12/10:00am 33.0 34.7 17.2 39 10.1 SSE 4 9 2 5 1012.7 1012.5 0.0
12/09:30am 32.5 33.7 16.8 39 10.0 SE 6 9 3 5 1012.8 1012.6 0.0
12/09:00am 31.2 33.2 17.9 45 8.5 ENE 4 6 2 3 1012.7 1012.5 0.0
12/08:30am 30.1 34.3 21.7 60 5.7 ENE 2 4 1 2 1012.4 1012.2 0.0
12/08:00am 28.8 34.4 23.5 73 3.6 CALM 0 4 0 2 1012.1 1011.9 0.0
12/07:30am 27.1 33.1 24.2 84 2.0 CALM 0 0 0 0 1011.7 1011.5 0.0
12/07:00am 25.4 30.8 23.8 91 1.1 N 2 4 1 2 1011.4 1011.2 0.0
12/06:30am 24.3 29.5 22.9 92 0.9 CALM 0 0 0 0 1011.1 1010.9 0.0
12/06:00am 24.4 29.7 23.0 92 0.9 CALM 0 0 0 0 1010.9 1010.7 0.0
12/05:30am 24.6 29.9 23.0 91 1.1 CALM 0 0 0 0 1010.7 1010.5 0.0
12/05:00am 24.8 30.2 23.2 91 1.1 CALM 0 0 0 0 1010.3 1010.1 0.0
12/04:30am 25.0 30.2 22.9 88 1.4 CALM 0 0 0 0 1010.0 1009.8 0.0
12/04:00am 25.9 31.6 23.8 88 1.4 CALM 0 0 0 0 1009.9 1009.7 0.0
12/03:30am 26.3 32.1 24.0 87 1.6 CALM 0 0 0 0 1009.9 1009.7 0.0
12/03:00am 26.0 31.8 23.9 88 1.4 CALM 0 0 0 0 1009.9 1009.7 0.0
12/02:30am 26.3 31.9 23.6 85 1.9 CALM 0 0 0 0 1009.8 1009.6 0.0
12/02:00am 26.7 32.4 23.8 84 2.0 CALM 0 0 0 0 1010.1 1009.9 0.0
12/01:30am 26.8 32.5 23.7 83 2.1 CALM 0 2 0 1 1010.3 1010.1 0.0
12/01:00am 27.4 33.1 23.8 81 2.5 CALM 0 0 0 0 1010.4 1010.2 0.0
12/12:30am 27.8 33.5 23.8 79 2.8 CALM 0 0 0 0 1010.6 1010.4 0.0
12/12:00am 28.1 33.4 23.7 77 3.0 NNW 2 4 1 2 1010.7 1010.5 0.0
 
Date/Time
CST
Temp
°C
App
Temp
°C
Dew
Point
°C
Rel
Hum
%
Delta-T
°C
Wind Press
QNH
hPa
Press
MSL
hPa
Rain since
9am
mm
Dir  Spd
km/h
Gust
km/h
Spd
kts
Gust
kts
11/11:30pm 28.3 33.2 23.7 76 3.2 WNW 4 6 2 3 1010.7 1010.5 0.0
11/11:00pm 28.5 32.9 23.4 74 3.5 WNW 6 9 3 5 1010.7 1010.5 0.0
11/10:30pm 28.6 32.9 23.3 73 3.6 WNW 6 7 3 4 1010.4 1010.2 0.0
11/10:00pm 28.7 32.7 22.7 70 4.1 NW 6 7 3 4 1010.2 1010.0 0.0
11/09:30pm 29.0 33.0 22.0 66 4.7 WNW 4 6 2 3 1009.9 1009.7 0.0
11/09:00pm 28.7 31.9 21.7 66 4.7 NW 7 13 4 7 1009.6 1009.4 0.0
11/08:30pm 28.0 31.3 19.0 58 5.8 CALM 0 0 0 0 1009.2 1009.0 0.0
11/08:00pm 29.3 32.6 19.0 53 6.7 CALM 0 0 0 0 1008.7 1008.5 0.0
11/07:30pm 30.4 32.0 16.8 44 8.6 NW 4 6 2 3 1008.4 1008.2 0.0
11/07:00pm 31.8 32.5 14.4 34 10.6 WNW 4 6 2 3 1008.0 1007.8 0.0
11/06:30pm 32.9 32.0 12.5 29 12.2 WNW 9 13 5 7 1007.7 1007.5 0.0
11/06:00pm 33.6 33.1 16.0 34 11.1 WNW 13 20 7 11 1007.5 1007.3 0.0
11/05:30pm 34.5 34.2 17.3 36 11.1 WNW 15 26 8 14 1007.2 1007.0 0.0
11/05:00pm 36.1 35.2 13.6 26 13.8 NNW 11 19 6 10 1006.9 1006.7 0.0
11/04:30pm 36.4 36.5 16.5 30 12.7 NW 11 19 6 10 1006.8 1006.6 0.0
11/04:00pm 37.0 38.1 18.1 33 12.4 WNW 9 15 5 8 1006.9 1006.7 0.0
11/03:30pm 36.4 37.3 18.5 35 11.8 WNW 11 17 6 9 1007.2 1007.0 0.0
11/03:00pm 36.1 36.5 18.2 34 11.7 NW 13 22 7 12 1007.7 1007.5 0.0
11/02:30pm 35.6 37.4 18.7 37 11.1 NW 7 15 4 8 1007.8 1007.6 0.0
11/02:00pm 37.1 39.1 19.1 35 11.9 W 7 13 4 7 1008.1 1007.9 0.0
11/01:30pm 36.2 37.2 15.3 28 13.1 SE 4 7 2 4 1008.7 1008.5 0.0
11/01:00pm 36.9 37.5 15.9 28 13.3 S 7 11 4 6 1009.2 1009.0 0.0
11/12:30pm 36.6 37.5 16.7 30 12.8 NE 7 15 4 8 1009.8 1009.6 0.0
11/12:00pm 35.9 36.4 15.6 30 12.8 N 7 13 4 7 1010.3 1010.1 0.0
11/11:30am 35.7 35.6 14.9 29 13.0 E 9 17 5 9 1010.8 1010.6 0.0
11/11:00am 34.5 35.9 17.3 36 11.0 WNW 6 9 3 5 1011.1 1010.9 0.0
11/10:30am 33.9 35.4 17.6 38 10.5 E 6 9 3 5 1011.5 1011.3 0.0
11/10:00am 33.4 35.0 18.3 40 9.8 NE 7 13 4 7 1011.5 1011.3 0.0
11/09:30am 32.6 33.9 17.6 40 9.6 NNE 7 11 4 6 1011.5 1011.3 0.0
11/09:00am 31.4 34.0 20.0 50 7.5 NNE 6 9 3 5 1011.5 1011.3 0.0
11/08:30am 29.9 34.2 22.6 65 5.0 NE 4 6 2 3 1011.2 1011.0 0.0
11/08:00am 28.2 34.2 24.8 82 2.4 NNE 2 4 1 2 1011.2 1011.0 0.0
11/07:30am 26.8 32.7 24.1 85 1.9 CALM 0 0 0 0 1011.0 1010.8 0.0
11/07:00am 25.6 31.3 23.8 90 1.2 CALM 0 0 0 0 1010.6 1010.4 0.0
11/06:30am 24.8 30.3 23.4 92 1.0 CALM 0 0 0 0 1010.2 1010.0 0.0
11/06:00am 25.2 30.9 23.8 92 1.0 CALM 0 0 0 0 1010.1 1009.9 0.0
11/05:30am 25.1 30.7 23.5 91 1.1 CALM 0 0 0 0 1010.0 1009.8 0.0
11/05:00am 25.6 31.3 23.8 90 1.2 CALM 0 0 0 0 1009.8 1009.6 0.0
11/04:30am 25.5 31.2 23.7 90 1.2 CALM 0 0 0 0 1009.8 1009.6 0.0
11/04:00am 25.3 30.9 23.5 90 1.2 CALM 0 0 0 0 1009.5 1009.3 0.0
11/03:30am 25.7 31.1 23.9 90 1.2 SE 2 4 1 2 1009.5 1009.3 0.0
11/03:00am 25.8 31.5 23.7 88 1.4 CALM 0 0 0 0 1009.5 1009.3 0.0
11/02:30am 26.1 31.9 24.0 88 1.4 CALM 0 0 0 0 1009.7 1009.5 0.0
11/02:00am 26.2 32.1 24.1 88 1.4 CALM 0 0 0 0 1010.0 1009.8 0.0
11/01:30am 26.5 32.5 24.2 87 1.6 CALM 0 0 0 0 1010.1 1009.9 0.0
11/01:00am 26.8 32.6 23.9 84 2.0 CALM 0 0 0 0 1010.3 1010.1 0.0
11/12:30am 27.4 33.0 23.6 80 2.6 CALM 0 0 0 0 1010.4 1010.2 0.0
11/12:00am 27.9 32.9 23.9 79 2.8 N 4 6 2 3 1010.3 1010.1 0.0

Latest Capital City Observations: Canberra | Sydney | Melbourne | Brisbane | Adelaide | Perth | Hobart | Darwin

Other formats

Comma delimited format used in spreadsheet applications
http://www.bom.gov.au/fwo/IDD60901/IDD60901.94105.axf

JavaScript Object Notation format (JSON) in row-major order
http://www.bom.gov.au/fwo/IDD60901/IDD60901.94105.json

Data quality

Most of these data are generated automatically and are frequently updated. Quality checks on data are not normally performed. It is possible for incorrect values to appear. Refer to information at About Latest Weather Observations and please check the disclaimer before using these data.